createdAt,value
2022-10-18T00:01:23.205Z,4.25
2022-10-18T00:04:27.097Z,4.00
2022-10-18T00:07:31.447Z,4.00
2022-10-18T00:10:35.774Z,4.50
2022-10-18T00:13:40.089Z,4.55
2022-10-18T00:16:44.471Z,4.45
2022-10-18T00:19:50.426Z,4.32
2022-10-18T00:22:54.205Z,4.90
2022-10-18T00:26:04.121Z,4.40
2022-10-18T00:29:12.909Z,4.72
2022-10-18T00:32:16.750Z,4.10
2022-10-18T00:35:20.700Z,4.32
2022-10-18T00:38:24.727Z,3.90
2022-10-18T00:41:31.307Z,4.22
2022-10-18T00:44:34.959Z,4.30
2022-10-18T00:47:39.231Z,4.43
2022-10-18T00:50:43.642Z,4.57
2022-10-18T00:53:48.491Z,4.50
2022-10-18T00:56:52.546Z,4.30
2022-10-18T00:59:56.768Z,4.28
2022-10-18T01:03:00.580Z,4.25
2022-10-18T01:06:04.719Z,4.82
2022-10-18T01:09:28.490Z,4.65
2022-10-18T01:12:45.214Z,4.30
2022-10-18T01:16:02.814Z,4.68
2022-10-18T01:19:39.169Z,4.70
2022-10-18T01:22:59.681Z,4.25
2022-10-18T01:26:23.260Z,4.40
2022-10-18T01:29:53.743Z,4.00
2022-10-18T01:33:23.979Z,6.20
2022-10-18T01:36:35.774Z,5.10
2022-10-18T01:39:44.966Z,4.65
2022-10-18T01:42:50.126Z,4.35
2022-10-18T01:45:55.213Z,4.40
2022-10-18T01:48:59.566Z,4.55
2022-10-18T01:52:03.815Z,4.82
2022-10-18T01:55:08.131Z,4.35
2022-10-18T01:58:27.200Z,4.80
2022-10-18T02:01:36.891Z,4.35
2022-10-18T02:05:06.340Z,5.15
2022-10-18T02:08:23.989Z,4.82
2022-10-18T02:11:31.236Z,4.60
2022-10-18T02:14:35.775Z,4.95
2022-10-18T02:17:40.908Z,4.95
2022-10-18T02:20:45.653Z,4.80
2022-10-18T02:23:50.084Z,5.03
2022-10-18T02:26:53.789Z,4.97
2022-10-18T02:29:58.661Z,4.85
2022-10-18T02:33:11.193Z,4.93
2022-10-18T02:36:22.146Z,4.63
2022-10-18T02:39:30.514Z,4.68
2022-10-18T02:42:39.826Z,5.13
2022-10-18T02:45:44.187Z,4.30
2022-10-18T02:48:47.971Z,5.35
2022-10-18T02:51:51.597Z,4.63
2022-10-18T02:54:55.285Z,5.32
2022-10-18T02:57:59.049Z,4.82
2022-10-18T03:01:02.884Z,4.88
2022-10-18T03:04:06.988Z,4.95
2022-10-18T03:07:10.882Z,5.18
2022-10-18T03:10:14.946Z,5.03
2022-10-18T03:13:19.087Z,5.63
2022-10-18T03:16:23.169Z,4.97
2022-10-18T03:19:27.273Z,4.90
2022-10-18T03:22:31.579Z,4.80
2022-10-18T03:25:35.314Z,4.80
2022-10-18T03:28:39.059Z,4.95
2022-10-18T03:31:43.272Z,4.68
2022-10-18T03:34:47.425Z,4.95
2022-10-18T03:37:51.355Z,4.78
2022-10-18T03:40:55.346Z,5.10
2022-10-18T03:43:59.326Z,5.03
2022-10-18T03:47:03.433Z,5.40
2022-10-18T03:50:07.600Z,5.15
2022-10-18T03:53:11.691Z,5.35
2022-10-18T03:56:15.940Z,4.93
2022-10-18T03:59:19.911Z,5.38
2022-10-18T04:02:24.438Z,4.90
2022-10-18T04:05:30.781Z,5.25
2022-10-18T04:08:35.007Z,5.30
2022-10-18T04:11:38.997Z,5.10
2022-10-18T04:14:42.712Z,6.32
2022-10-18T04:17:46.961Z,5.80
2022-10-18T04:20:50.954Z,5.45
2022-10-18T04:23:54.904Z,5.60
2022-10-18T04:26:58.690Z,6.30
2022-10-18T04:30:02.705Z,5.43
2022-10-18T04:33:06.420Z,5.55
2022-10-18T04:36:10.244Z,5.60
2022-10-18T04:39:14.292Z,6.10
2022-10-18T04:42:18.339Z,5.47
2022-10-18T04:45:22.120Z,5.50
2022-10-18T04:48:26.392Z,5.63
2022-10-18T04:51:30.703Z,5.43
2022-10-18T04:54:34.952Z,5.93
2022-10-18T04:57:38.776Z,5.65
2022-10-18T05:00:43.436Z,5.80
2022-10-18T05:03:52.295Z,5.55
2022-10-18T05:06:56.327Z,5.47
2022-10-18T05:10:00.172Z,6.05
2022-10-18T05:13:03.878Z,5.43
2022-10-18T05:16:07.918Z,5.78
2022-10-18T05:19:11.655Z,6.07
2022-10-18T05:22:15.763Z,5.88
2022-10-18T05:25:19.579Z,5.93
2022-10-18T05:28:41.063Z,5.57
2022-10-18T05:31:45.455Z,5.72
2022-10-18T05:34:49.257Z,9.30
2022-10-18T05:37:53.555Z,12.57
2022-10-18T05:40:57.715Z,5.50
2022-10-18T05:44:05.718Z,5.85
2022-10-18T05:47:09.540Z,5.88
2022-10-18T05:50:14.498Z,5.85
2022-10-18T05:53:35.812Z,5.50
2022-10-18T05:56:41.387Z,6.15
2022-10-18T05:59:45.332Z,5.32
2022-10-18T06:02:49.351Z,5.80
2022-10-18T06:05:54.212Z,5.93
2022-10-18T06:08:58.592Z,6.78
2022-10-18T06:12:02.688Z,7.63
2022-10-18T06:15:07.316Z,7.20
2022-10-18T06:18:11.080Z,7.32
2022-10-18T06:21:16.463Z,6.63
2022-10-18T06:24:21.758Z,7.60
2022-10-18T06:27:25.603Z,8.70
2022-10-18T06:30:29.497Z,8.60
2022-10-18T06:33:35.197Z,8.68
2022-10-18T06:36:39.031Z,10.15
2022-10-18T06:39:42.863Z,10.10
2022-10-18T06:42:55.279Z,9.88
2022-10-18T06:46:10.232Z,9.70
2022-10-18T06:49:18.325Z,9.90
2022-10-18T06:52:25.620Z,8.80
2022-10-18T06:55:30.714Z,9.23
2022-10-18T06:58:35.461Z,9.93
2022-10-18T07:01:39.874Z,9.30
2022-10-18T07:04:44.054Z,9.68
2022-10-18T07:07:50.626Z,9.05
2022-10-18T07:10:55.587Z,8.98
2022-10-18T07:14:03.023Z,9.57
2022-10-18T07:17:07.700Z,9.20
2022-10-18T07:20:12.291Z,8.95
2022-10-18T07:23:15.915Z,9.30
2022-10-18T07:26:27.077Z,9.50
2022-10-18T07:29:31.621Z,10.38
2022-10-18T07:32:35.363Z,9.38
2022-10-18T07:35:39.421Z,10.75
2022-10-18T07:38:44.603Z,11.00
2022-10-18T07:41:48.614Z,10.05
2022-10-18T07:44:52.475Z,10.73
2022-10-18T07:47:56.855Z,12.77
2022-10-18T07:51:01.409Z,12.18
2022-10-18T07:54:05.597Z,10.88
2022-10-18T07:57:09.964Z,10.25
2022-10-18T08:00:14.349Z,9.68
2022-10-18T08:03:19.049Z,10.18
2022-10-18T08:06:23.772Z,6.38
2022-10-18T08:09:28.247Z,5.13
2022-10-18T08:12:32.933Z,3.83
2022-10-18T08:15:36.686Z,4.00
2022-10-18T08:18:41.466Z,4.03
2022-10-18T08:21:45.313Z,4.40
2022-10-18T08:24:49.715Z,3.65
2022-10-18T08:27:53.642Z,4.28
2022-10-18T08:31:01.992Z,3.95
2022-10-18T08:34:05.971Z,4.63
2022-10-18T08:37:10.120Z,4.05
2022-10-18T08:40:14.793Z,3.30
2022-10-18T08:43:37.466Z,3.45
2022-10-18T08:46:46.064Z,3.10
2022-10-18T08:49:57.933Z,2.70
2022-10-18T08:53:13.892Z,2.20
2022-10-18T08:56:24.139Z,2.13
2022-10-18T08:59:40.583Z,2.25
2022-10-18T09:02:59.035Z,1.80
2022-10-18T09:06:17.677Z,2.08
2022-10-18T09:09:35.453Z,2.20
2022-10-18T09:12:54.936Z,2.08
2022-10-18T09:16:02.463Z,2.10
2022-10-18T09:19:37.312Z,2.00
2022-10-18T09:23:01.969Z,2.13
2022-10-18T09:26:17.286Z,2.20
2022-10-18T09:29:40.853Z,2.15
2022-10-18T09:36:00.342Z,2.03
2022-10-18T09:39:08.790Z,2.00
2022-10-18T09:42:34.946Z,2.00
2022-10-18T09:45:45.505Z,2.00
2022-10-18T09:48:55.999Z,2.05
2022-10-18T09:52:08.914Z,2.00
2022-10-18T09:58:22.742Z,2.20
2022-10-18T10:01:30.357Z,2.30
2022-10-18T10:04:34.253Z,2.25
2022-10-18T10:07:44.465Z,2.13
2022-10-18T10:10:48.589Z,2.40
2022-10-18T10:13:57.505Z,1.90
2022-10-18T10:17:05.763Z,2.10
2022-10-18T10:20:21.200Z,2.17
2022-10-18T10:23:26.509Z,2.00
2022-10-18T10:26:34.792Z,1.88
2022-10-18T10:29:49.543Z,2.03
2022-10-18T10:32:54.829Z,2.45
2022-10-18T10:36:00.682Z,2.13
2022-10-18T10:39:04.590Z,2.10
2022-10-18T10:42:13.365Z,2.30
2022-10-18T10:45:17.654Z,2.55
2022-10-18T10:48:22.547Z,2.65
2022-10-18T10:51:33.356Z,2.67
2022-10-18T10:54:39.839Z,2.90
2022-10-18T10:57:47.152Z,2.60
2022-10-18T11:00:51.276Z,2.83
2022-10-18T11:03:58.454Z,3.88
2022-10-18T11:07:27.385Z,3.38
2022-10-18T11:10:38.344Z,3.20
2022-10-18T11:13:53.422Z,3.25
2022-10-18T11:17:16.320Z,3.30
2022-10-18T11:20:43.135Z,3.50
2022-10-18T11:23:47.279Z,3.10
2022-10-18T11:27:02.644Z,3.40
2022-10-18T11:30:37.613Z,3.40
2022-10-18T11:34:15.396Z,3.63
2022-10-18T11:37:44.831Z,3.10
2022-10-18T11:40:54.939Z,3.08
2022-10-18T11:44:04.413Z,4.00
2022-10-18T11:47:43.827Z,3.28
2022-10-18T11:51:04.322Z,3.40
2022-10-18T11:54:11.421Z,3.17
2022-10-18T11:57:31.561Z,3.38
2022-10-18T12:00:50.861Z,3.25
2022-10-18T12:04:14.043Z,3.83
2022-10-18T12:07:26.817Z,4.13
2022-10-18T12:10:45.806Z,3.72
2022-10-18T12:14:02.022Z,3.25
2022-10-18T12:17:41.695Z,2.95
2022-10-18T12:20:49.564Z,2.95
2022-10-18T12:23:54.024Z,3.60
2022-10-18T12:27:01.896Z,3.53
2022-10-18T12:30:24.340Z,5.55
2022-10-18T12:33:34.211Z,3.47
2022-10-18T12:40:20.509Z,3.80
2022-10-18T12:43:32.445Z,3.53
2022-10-18T12:46:43.946Z,3.60
2022-10-18T12:49:57.695Z,3.90
2022-10-18T12:53:29.658Z,3.90
2022-10-18T12:56:42.493Z,3.22
2022-10-18T12:59:46.657Z,3.15
2022-10-18T13:03:13.105Z,2.85
2022-10-18T13:06:17.002Z,2.92
2022-10-18T13:09:21.779Z,3.15
2022-10-18T13:12:28.775Z,2.80
2022-10-18T13:15:42.991Z,2.83
2022-10-18T13:18:57.162Z,3.03
2022-10-18T13:22:37.907Z,2.63
2022-10-18T13:26:01.764Z,2.92
2022-10-18T13:29:30.092Z,3.00
2022-10-18T13:32:58.137Z,3.30
2022-10-18T13:36:06.429Z,3.05
2022-10-18T13:39:20.027Z,3.90
2022-10-18T13:42:33.052Z,3.63
2022-10-18T13:49:20.071Z,3.10
2022-10-18T13:52:27.291Z,3.50
2022-10-18T13:56:10.052Z,3.78
2022-10-18T13:59:44.088Z,3.85
2022-10-18T14:03:37.594Z,3.90
2022-10-18T14:06:43.481Z,3.53
2022-10-18T14:09:57.591Z,3.90
2022-10-18T14:13:04.206Z,3.30
2022-10-18T14:16:34.829Z,3.78
2022-10-18T14:19:42.421Z,4.00
2022-10-18T14:23:16.252Z,3.45
2022-10-18T14:29:24.968Z,3.97
2022-10-18T14:32:31.687Z,3.28
2022-10-18T14:35:35.696Z,3.45
2022-10-18T14:38:57.321Z,3.78
2022-10-18T14:42:02.255Z,3.70
2022-10-18T14:45:19.456Z,3.95
2022-10-18T14:48:23.927Z,4.40
2022-10-18T14:51:32.859Z,4.82
2022-10-18T14:54:38.064Z,5.57
2022-10-18T14:57:42.067Z,5.55
2022-10-18T15:00:48.551Z,5.47
2022-10-18T15:03:59.618Z,4.90
2022-10-18T15:07:06.400Z,7.13
2022-10-18T15:10:18.843Z,5.40
2022-10-18T15:13:25.016Z,5.50
2022-10-18T15:16:31.889Z,5.10
2022-10-18T15:19:42.946Z,5.60
2022-10-18T15:22:47.628Z,6.13
2022-10-18T15:25:59.496Z,5.63
2022-10-18T15:29:06.205Z,5.18
2022-10-18T15:32:31.899Z,5.60
2022-10-18T15:35:38.432Z,6.30
2022-10-18T15:38:46.222Z,5.90
2022-10-18T15:42:02.739Z,5.78
2022-10-18T15:48:40.325Z,6.57
2022-10-18T15:51:49.394Z,5.72
2022-10-18T15:54:53.409Z,5.85
2022-10-18T15:58:15.927Z,6.22
2022-10-18T16:01:22.490Z,5.80
2022-10-18T16:04:32.353Z,6.25
2022-10-18T16:07:36.263Z,6.38
2022-10-18T16:10:40.106Z,6.97
2022-10-18T16:13:44.436Z,7.82
2022-10-18T16:16:52.624Z,7.68
2022-10-18T16:19:56.605Z,7.20
2022-10-18T16:23:00.495Z,7.60
2022-10-18T16:26:05.057Z,7.90
2022-10-18T16:29:15.776Z,8.30
2022-10-18T16:32:19.608Z,8.50
2022-10-18T16:35:23.543Z,8.02
2022-10-18T16:38:35.206Z,7.40
2022-10-18T16:41:39.504Z,7.80
2022-10-18T16:44:43.283Z,9.02
2022-10-18T16:47:47.420Z,8.35
2022-10-18T16:50:53.602Z,8.20
2022-10-18T16:53:58.126Z,7.82
2022-10-18T16:57:02.529Z,7.90
2022-10-18T17:00:07.032Z,8.40
2022-10-18T17:03:11.043Z,7.93
2022-10-18T17:06:17.603Z,8.80
2022-10-18T17:09:21.478Z,8.88
2022-10-18T17:12:25.523Z,8.25
2022-10-18T17:15:32.873Z,8.18
2022-10-18T17:18:39.055Z,8.40
2022-10-18T17:21:42.820Z,7.50
2022-10-18T17:24:46.987Z,7.65
2022-10-18T17:27:50.950Z,7.90
2022-10-18T17:30:54.779Z,7.93
2022-10-18T17:34:01.336Z,7.90
2022-10-18T17:37:05.890Z,8.40
2022-10-18T17:40:10.222Z,7.85
2022-10-18T17:43:14.432Z,8.73
2022-10-18T17:46:19.574Z,8.25
2022-10-18T17:49:23.608Z,8.43
2022-10-18T17:52:27.900Z,8.77
2022-10-18T17:55:34.214Z,8.77
2022-10-18T17:58:38.282Z,9.98
2022-10-18T18:01:44.217Z,10.10
2022-10-18T18:04:48.521Z,9.80
2022-10-18T18:07:52.990Z,10.18
2022-10-18T18:10:56.786Z,10.30
2022-10-18T18:14:00.791Z,11.27
2022-10-18T18:17:05.071Z,10.73
2022-10-18T18:20:09.780Z,11.10
2022-10-18T18:23:14.445Z,12.23
2022-10-18T18:26:19.459Z,12.70
2022-10-18T18:29:25.094Z,13.57
2022-10-18T18:32:31.059Z,13.70
2022-10-18T18:35:35.807Z,13.85
2022-10-18T18:38:45.117Z,12.77
2022-10-18T18:41:51.381Z,14.52
2022-10-18T18:44:55.345Z,14.00
2022-10-18T18:48:01.949Z,14.57
2022-10-18T18:51:11.106Z,14.05
2022-10-18T18:54:15.962Z,14.88
2022-10-18T18:57:20.070Z,14.95
2022-10-18T19:00:24.273Z,14.95
2022-10-18T19:03:28.447Z,15.80
2022-10-18T19:06:47.389Z,15.40
2022-10-18T19:09:52.075Z,15.00
2022-10-18T19:12:56.676Z,14.75
2022-10-18T19:16:34.319Z,15.20
2022-10-18T19:19:40.735Z,15.55
2022-10-18T19:22:45.590Z,16.10
2022-10-18T19:25:49.420Z,17.13
2022-10-18T19:28:53.675Z,16.23
2022-10-18T19:32:00.256Z,16.50
2022-10-18T19:35:04.250Z,15.63
2022-10-18T19:38:08.135Z,15.82
2022-10-18T19:41:12.373Z,15.65
2022-10-18T19:44:18.535Z,15.30
2022-10-18T19:47:22.666Z,14.77
2022-10-18T19:53:35.796Z,15.38
2022-10-18T19:56:43.251Z,15.23
2022-10-18T19:59:47.130Z,17.48
2022-10-18T20:02:50.825Z,15.40
2022-10-18T20:05:58.964Z,16.35
2022-10-18T20:09:04.397Z,17.52
2022-10-18T20:12:08.248Z,17.38
2022-10-18T20:15:12.711Z,16.92
2022-10-18T20:18:18.583Z,16.90
2022-10-18T20:21:22.302Z,18.95
2022-10-18T20:24:26.350Z,18.67
2022-10-18T20:27:31.894Z,15.93
2022-10-18T20:30:36.549Z,15.55
2022-10-18T20:33:41.189Z,15.15
2022-10-18T20:36:45.393Z,16.20
2022-10-18T20:39:49.608Z,15.65
2022-10-18T20:42:53.865Z,16.00
2022-10-18T20:45:59.089Z,15.48
2022-10-18T20:49:05.158Z,15.48
2022-10-18T20:52:09.132Z,14.52
2022-10-18T20:55:13.266Z,14.80
2022-10-18T20:58:17.307Z,15.57
2022-10-18T21:01:24.214Z,15.90
2022-10-18T21:04:28.281Z,15.43
2022-10-18T21:07:32.426Z,15.50
2022-10-18T21:10:36.712Z,15.82
2022-10-18T21:13:43.485Z,15.23
2022-10-18T21:16:48.455Z,15.38
2022-10-18T21:19:53.567Z,16.30
2022-10-18T21:22:57.578Z,15.55
2022-10-18T21:26:01.569Z,14.70
2022-10-18T21:29:06.143Z,15.13
2022-10-18T21:32:10.287Z,14.75
2022-10-18T21:35:14.140Z,13.00
2022-10-18T21:38:18.309Z,13.13
2022-10-18T21:41:22.572Z,12.63
2022-10-18T21:44:26.740Z,11.40
2022-10-18T21:47:31.054Z,10.48
2022-10-18T21:50:35.077Z,10.20
2022-10-18T21:53:38.949Z,9.63
2022-10-18T21:56:43.625Z,10.65
2022-10-18T21:59:47.279Z,9.77
2022-10-18T22:03:08.415Z,10.25
2022-10-18T22:06:15.193Z,9.20
2022-10-18T22:09:21.177Z,9.23
2022-10-18T22:12:25.128Z,8.68
2022-10-18T22:15:29.183Z,9.23
2022-10-18T22:18:33.921Z,9.55
2022-10-18T22:21:37.844Z,8.52
2022-10-18T22:24:41.734Z,8.70
2022-10-18T22:27:45.602Z,8.43
2022-10-18T22:30:49.837Z,8.45
2022-10-18T22:33:55.923Z,7.60
2022-10-18T22:36:59.931Z,8.15
2022-10-18T22:40:04.265Z,8.82
2022-10-18T22:43:08.096Z,8.95
2022-10-18T22:46:13.254Z,8.50
2022-10-18T22:49:17.103Z,8.50
2022-10-18T22:52:21.268Z,8.40
2022-10-18T22:55:25.297Z,8.80
2022-10-18T22:58:31.618Z,8.43
2022-10-18T23:01:37.785Z,8.90
2022-10-18T23:04:41.925Z,8.35
2022-10-18T23:07:49.398Z,8.15
2022-10-18T23:10:55.570Z,8.07
2022-10-18T23:13:59.576Z,8.45
2022-10-18T23:17:03.626Z,7.53
2022-10-18T23:20:07.988Z,8.35
2022-10-18T23:23:13.004Z,8.40
2022-10-18T23:26:20.300Z,8.00
2022-10-18T23:29:24.544Z,8.13
2022-10-18T23:32:28.729Z,8.02
2022-10-18T23:35:32.633Z,8.57
2022-10-18T23:38:38.443Z,8.00
2022-10-18T23:41:43.884Z,8.38
2022-10-18T23:44:48.191Z,7.80
2022-10-18T23:47:51.998Z,7.93
2022-10-18T23:50:56.259Z,7.68
2022-10-18T23:54:02.573Z,7.45
2022-10-18T23:57:06.588Z,8.65
